Aeroporto :
LOGIN :

Iscrizione | Disclaimer

   EN    FR    IT 

 










Sommario :    VFR   VFR Marginale   IFR   IFR Intensivo   IFR Molto Intensivo
Visibilità : 
Base nubi : 
>= 8 km
>= 3000ft
5 / 8 km
1000 / 3000 ft
1500m / 5 km
500 / 1000 ft
800 / 1500m
200 / 500 ft
< 800m
< 200 ft
Simboli :   Temporali  Nebbia  Neve Forte  Precipitazioni Forti  Vento > 20 kt
SIGMETs :   Varie  Temporali  Ghiacco  Turbolenza  Onda orograficha  Ceneri Vulcaniche






- Altitudine del aeroporto : 353 ft
- Codice IATA : ZAG


LDZA - Zagreb Pleso

ULTIMO METAR :
  • 210500Z 22005KT CAVOK 05/04 Q1021 NOSIG

METARs OBSOLETI :
  • 210430Z 22006KT CAVOK 05/05 Q1021 NOSIG
  • 210400Z 22006KT CAVOK 05/04 Q1021 NOSIG
  • 210330Z 22004KT 190V250 CAVOK 05/04 Q1021 NOSIG
  • 210300Z 23004KT CAVOK 05/04 Q1021 NOSIG
  • 210230Z 20004KT 9999 MIFG NSC 05/04 Q1021 NOSIG
  • 210200Z 00000KT 9999 MIFG NSC 04/04 Q1022 NOSIG

TAF AMD TAF LDZA
Valido dal 21 a 02 ore il 22 a 00 ore UTC


210200Z 2102/2200 VRB02KT CAVOK TX20/2113Z TN02/2105Z
PROB30 2102/2106 1200 BCFG BKN003
BECMG 2106/2108 22012KT
PROB30
TEMPO 2114/2120 22015G25KT
ATIS : +385 1 6-259-214



MetMap, La meteo Aeronautica in un colpo d'occhio ! - Copyright ORBIFLY Dicembre 2007 - Disclaimer

ORBIFLY MET'MAP TEAM :

Programmazione e sviluppo : Alexandra Zaïnal
Concezione : Baudouin d'Aumeries
Aiuto per la programmazione : Marc-Olivier Méhu
Supporto tecnico e logistico : Manuel Goepfert
Aiuto per la traduzione : Arnaldo La Scala

Contatto : metmap@orbifly.com




FONTI E CREDITI :

   NOAA